Latest Weather Observations for Parafield

IDS60901

Issued at 8:31 am CST Thursday 1 October 2020 (issued every 10 minutes, with the page automatically refreshed every 10 minutes)

About weather observations | Map of Adelaide area stations | Latest observations for Adelaide area | Other Formats
Station Details ID: 023013 Name: PARAFIELD AIRPORT Lat: -34.80 Lon: 138.63 Height: 9.5 m
Data from the previous 72 hours. | See also: Recent months at Parafield
Date/Time
CST
Temp
°C
App
Temp
°C
Dew
Point
°C
Rel
Hum
%
Delta-T
°C
Wind Press
QNH
hPa
Press
MSL
hPa
Rain since
9am
mm
Dir  Spd
km/h
Gust
km/h
Spd
kts
Gust
kts
01/08:00am 11.3 8.9 11.3 100 0.0 N 15 20 8 11 1019.0 1019.0 -
01/07:30am 10.2 - - - - N 13 20 7 11 1018.7 1018.7 -
01/07:00am 8.4 - - - - NE 4 7 2 4 1018.3 1018.3 -
01/06:30am 5.4 - - - - ESE 6 7 3 4 1018.0 1018.0 -
01/06:16am 4.7 - - - - ENE 7 9 4 5 1017.9 1017.9 -
01/06:00am 4.5 - - - - NNE 6 7 3 4 1017.7 1017.7 -
01/05:30am 4.5 - - - - CALM 0 0 0 0 1017.6 1017.6 -
01/05:00am 5.3 - - - - CALM 0 0 0 0 1017.2 1017.2 -
01/04:30am 5.7 - - - - NNE 4 6 2 3 1016.9 1016.9 -
01/04:00am 5.1 - - - - NE 9 9 5 5 1016.6 1016.6 -
01/03:42am 5.3 - - - - NE 6 7 3 4 1016.6 1016.6 -
01/03:30am 6.3 - - - - NNE 7 9 4 5 1016.3 1016.3 -
01/03:00am 6.1 - - - - NE 11 13 6 7 1016.3 1016.3 0.0
01/02:57am 6.0 - - - - NE 11 13 6 7 1016.3 1016.3 -
01/02:35am 5.6 - - - - NE 7 9 4 5 1016.4 1016.4 -
01/02:30am 5.6 - - - - NE 7 7 4 4 1016.3 1016.3 -
01/02:27am 5.7 - - - - NE 7 9 4 5 1016.3 1016.3 -
01/02:00am 5.9 - - - - NNE 7 9 4 5 1016.3 1016.3 -
01/01:30am 6.4 - - - - CALM 0 0 0 0 1016.5 1016.5 -
01/01:21am 5.4 4.4 5.4 100 0.0 CALM 0 6 0 3 1016.5 1016.5 -
01/01:00am 6.6 - - - - CALM 0 0 0 0 1016.5 1016.5 -
01/12:30am 7.2 6.5 6.9 98 0.1 CALM 0 0 0 0 1016.4 1016.4 -
01/12:13am 7.4 5.7 7.4 100 0.0 ENE 6 7 3 4 1016.6 1016.6 -
01/12:00am 7.1 6.4 7.1 100 0.0 CALM 0 0 0 0 1016.6 1016.6 -
 
Date/Time
CST
Temp
°C
App
Temp
°C
Dew
Point
°C
Rel
Hum
%
Delta-T
°C
Wind Press
QNH
hPa
Press
MSL
hPa
Rain since
9am
mm
Dir  Spd
km/h
Gust
km/h
Spd
kts
Gust
kts
30/11:30pm 7.7 5.8 7.7 100 0.0 WNW 7 7 4 4 1016.7 1016.7 -
30/11:00pm 9.6 8.2 9.6 100 0.0 W 7 9 4 5 1016.8 1016.8 -
30/10:30pm 9.9 8.2 9.9 100 0.0 WSW 9 11 5 6 1016.9 1016.9 -
30/10:00pm 10.6 8.7 10.6 100 0.0 WSW 11 13 6 7 1016.6 1016.6 -
30/09:30pm 11.6 10.0 11.6 100 0.0 W 11 13 6 7 1016.1 1016.1 -
30/09:00pm 12.0 11.3 12.0 100 0.0 W 7 9 4 5 1016.2 1016.2 4.0
30/08:30pm 12.8 12.5 12.8 100 0.0 W 6 9 3 5 1016.0 1016.0 -
30/08:00pm 13.2 12.5 13.2 100 0.0 WNW 9 11 5 6 1015.8 1015.8 -
30/07:30pm 13.2 12.5 13.2 100 0.0 WNW 9 13 5 7 1015.1 1015.1 -
30/07:00pm 13.9 12.7 13.9 100 0.0 W 13 20 7 11 1014.8 1014.8 -
30/06:30pm 14.0 12.8 14.0 100 0.0 W 13 17 7 9 1014.2 1014.2 -
30/06:04pm 14.0 12.0 14.0 100 0.0 W 17 20 9 11 1013.8 1013.8 -
30/06:02pm 14.0 12.0 14.0 100 0.0 W 17 26 9 14 1013.8 1013.8 -
30/06:00pm 14.0 11.7 14.0 100 0.0 WSW 19 33 10 18 1013.8 1013.8 -
30/05:52pm 14.0 12.0 14.0 100 0.0 WSW 17 33 9 18 1013.7 1013.7 -
30/05:43pm 14.3 13.2 14.3 100 0.0 WSW 13 20 7 11 1013.8 1013.8 -
30/05:30pm 14.3 14.0 14.3 100 0.0 W 9 11 5 6 1013.4 1013.4 -
30/05:21pm 14.3 14.0 14.3 100 0.0 WSW 9 13 5 7 1013.3 1013.3 -
30/05:11pm 14.2 13.8 14.2 100 0.0 WSW 9 15 5 8 1013.2 1013.2 -
30/05:00pm 14.0 12.8 14.0 100 0.0 SSW 13 17 7 9 1013.2 1013.2 -
30/04:35pm 14.1 11.1 12.5 90 0.9 SW 20 30 11 16 1012.6 1012.6 -
30/04:30pm 14.3 10.7 12.0 86 1.2 SW 22 32 12 17 1012.6 1012.6 -
30/04:25pm 14.6 11.1 12.1 85 1.4 SW 22 32 12 17 1012.5 1012.5 -
30/04:00pm 16.5 13.5 12.1 75 2.4 WNW 19 32 10 17 1012.3 1012.3 -
30/03:30pm 16.6 12.6 11.7 73 2.7 W 24 30 13 16 1012.8 1012.8 -
30/03:00pm 15.9 12.7 11.9 77 2.2 WNW 20 32 11 17 1012.8 1012.8 -
30/02:30pm 15.9 12.3 11.9 77 2.2 WNW 22 33 12 18 1012.9 1012.9 -
30/02:00pm 16.5 14.0 12.3 76 2.3 WNW 17 22 9 12 1012.8 1012.8 -
30/01:30pm 15.8 12.3 11.0 73 2.6 WNW 20 32 11 17 1012.9 1012.9 -
30/01:00pm 15.5 11.6 10.9 74 2.4 WNW 22 33 12 18 1013.1 1013.1 -
30/12:30pm 15.2 10.2 10.8 75 2.3 WNW 28 39 15 21 1013.1 1013.1 -
30/12:00pm 14.5 10.6 10.7 78 2.0 NW 22 35 12 19 1013.2 1013.2 -
30/11:30am 15.4 10.9 10.2 71 2.7 NW 24 32 13 17 1013.3 1013.3 -
30/11:00am 15.8 12.3 10.8 72 2.7 NW 20 26 11 14 1013.3 1013.3 -
30/05:30am 12.1 9.2 9.8 86 1.2 W 15 20 8 11 1012.1 1012.1 11.4
30/05:00am 12.6 11.7 12.6 100 0.0 WNW 9 13 5 7 1011.8 1011.8 11.4
30/04:30am 12.7 11.8 12.7 100 0.0 WSW 9 17 5 9 1011.6 1011.6 11.4
30/04:00am 12.7 11.8 12.7 100 0.0 W 9 13 5 7 1011.7 1011.7 11.4
30/03:30am 12.8 10.8 12.8 100 0.0 WSW 15 20 8 11 1011.6 1011.6 11.4
30/03:00am 13.2 - - - - WSW 13 19 7 10 1011.8 1011.8 11.4
30/02:56am 13.1 - - - - WSW 15 20 8 11 1011.8 1011.8 11.4
30/02:53am 13.1 - - - - WSW 17 24 9 13 1011.8 1011.8 11.4
30/02:30am 13.2 - - - - W 20 30 11 16 1011.6 1011.6 11.2
30/02:08am 13.4 - - - - NNW 13 20 7 11 1011.6 1011.6 10.8
30/02:00am 13.3 - - - - N 13 17 7 9 1011.6 1011.6 10.6
30/01:45am 13.3 - - - - N 13 15 7 8 1011.7 1011.7 10.6
30/01:30am 13.3 - - - - N 11 15 6 8 1011.9 1011.9 10.6
30/01:26am 13.3 - - - - N 13 15 7 8 1011.9 1011.9 10.6
30/01:00am 13.2 - - - - N 13 17 7 9 1012.0 1012.0 10.6
30/12:30am 13.2 - - - - N 13 17 7 9 1012.5 1012.5 10.4
30/12:00am 13.2 - - - - N 15 20 8 11 1012.9 1012.9 10.4
 
Date/Time
CST
Temp
°C
App
Temp
°C
Dew
Point
°C
Rel
Hum
%
Delta-T
°C
Wind Press
QNH
hPa
Press
MSL
hPa
Rain since
9am
mm
Dir  Spd
km/h
Gust
km/h
Spd
kts
Gust
kts
29/11:38pm 13.2 - - - - NNE 13 19 7 10 1013.3 1013.3 10.4
29/11:30pm 13.2 - - - - N 15 20 8 11 1013.4 1013.4 10.4
29/11:16pm 13.2 - - - - NNE 17 20 9 11 1013.4 1013.4 10.4
29/11:03pm 13.2 - - - - NNE 17 22 9 12 1013.5 1013.5 10.4
29/11:00pm 13.2 - - - - NNE 17 22 9 12 1013.4 1013.4 10.4
29/10:52pm 13.2 - - - - NNE 17 20 9 11 1013.5 1013.5 10.4
29/10:34pm 13.3 11.5 13.3 100 0.0 NNE 15 22 8 12 1013.7 1013.7 10.4
29/10:32pm 13.3 11.5 13.3 100 0.0 NNE 15 20 8 11 1013.7 1013.7 10.4
29/10:30pm 13.3 11.9 13.3 100 0.0 NNE 13 20 7 11 1013.7 1013.7 10.4
29/10:25pm 13.3 11.9 13.3 100 0.0 NNE 13 15 7 8 1013.8 1013.8 10.4
29/10:15pm 13.3 11.5 13.3 100 0.0 NNE 15 19 8 10 1013.9 1013.9 10.2
29/10:00pm 13.4 12.0 13.4 100 0.0 N 13 19 7 10 1013.9 1013.9 10.0
29/09:59pm 13.5 12.1 13.5 100 0.0 N 13 17 7 9 1013.9 1013.9 9.8
29/09:30pm 13.6 12.3 13.6 100 0.0 N 13 19 7 10 1013.8 1013.8 9.8
29/09:00pm 13.6 12.3 13.6 100 0.0 NNE 13 17 7 9 1013.8 1013.8 9.8
29/08:30pm 13.5 11.0 13.5 100 0.0 NE 19 24 10 13 1013.8 1013.8 9.8
29/08:00pm 13.7 11.6 13.7 100 0.0 NE 17 22 9 12 1013.9 1013.9 9.6
29/07:30pm 13.9 12.3 13.9 100 0.0 NE 15 20 8 11 1014.1 1014.1 9.6
29/07:00pm 13.9 12.3 13.9 100 0.0 NE 15 20 8 11 1014.1 1014.1 9.4
29/06:30pm 14.0 12.4 14.0 100 0.0 NE 15 19 8 10 1014.2 1014.2 9.0
29/06:00pm 14.1 13.3 14.1 100 0.0 NE 11 15 6 8 1014.1 1014.1 8.6
29/05:30pm 14.2 14.2 14.2 100 0.0 NE 7 13 4 7 1014.2 1014.2 8.0
29/05:00pm 14.3 15.3 14.3 100 0.0 ENE 2 11 1 6 1014.1 1014.1 7.4
29/04:30pm 14.4 13.7 14.4 100 0.0 NE 11 13 6 7 1014.3 1014.3 6.4
29/04:00pm 14.6 14.8 14.6 100 0.0 NE 7 9 4 5 1014.5 1014.5 5.6
29/03:30pm 14.6 14.8 14.6 100 0.0 ENE 7 9 4 5 1014.8 1014.8 5.2
29/03:00pm 14.3 15.7 14.3 100 0.0 CALM 0 0 0 0 1014.9 1014.9 4.8
29/02:30pm 14.3 14.3 14.3 100 0.0 NE 7 11 4 6 1015.2 1015.2 4.2
29/02:23pm 14.3 14.3 14.3 100 0.0 NE 7 11 4 6 1015.4 1015.4 4.0
29/02:03pm 14.2 13.1 14.2 100 0.0 N 13 19 7 10 1015.6 1015.6 2.6
29/02:01pm 14.2 13.1 14.2 100 0.0 N 13 19 7 10 1015.9 1015.9 2.0
29/02:00pm 14.2 13.1 14.2 100 0.0 N 13 19 7 10 1015.9 1015.9 1.8
29/01:42pm 14.7 10.6 12.6 87 1.1 NNW 26 41 14 22 1016.1 1016.1 0.8
29/01:30pm 16.5 12.4 10.1 66 3.4 NW 22 35 12 19 1015.6 1015.6 0.0
29/01:00pm 18.2 12.8 7.9 51 5.3 NW 26 35 14 19 1015.7 1015.7 0.0
29/12:30pm 19.4 14.0 6.5 43 6.4 NW 24 32 13 17 1016.1 1016.1 0.0
29/12:01pm 20.4 13.4 6.0 39 7.2 NW 32 50 17 27 1016.4 1016.4 0.0
29/12:00pm 20.3 13.1 5.9 39 7.2 NW 33 50 18 27 1016.4 1016.4 0.0
29/11:52am 20.8 14.3 4.8 35 7.8 NW 28 48 15 26 1016.5 1016.5 0.0
29/11:30am 20.6 15.8 4.6 35 7.8 N 19 32 10 17 1016.6 1016.6 0.0
29/11:00am 20.1 14.3 4.2 35 7.6 NNE 24 30 13 16 1016.5 1016.5 0.0
29/10:30am 19.5 13.5 3.2 34 7.6 NNE 24 39 13 21 1016.4 1016.4 0.0
29/10:00am 19.3 12.1 3.1 34 7.6 NNE 30 43 16 23 1015.8 1015.8 0.0
29/09:30am 19.3 12.0 2.6 33 7.7 NE 30 44 16 24 1016.0 1016.0 0.0
29/09:00am 19.0 11.3 2.4 33 7.6 NNE 32 43 17 23 1016.3 1016.3 0.0
29/08:30am 18.8 11.1 2.2 33 7.6 NNE 32 44 17 24 1016.6 1016.6 0.0
29/08:00am 18.5 11.4 1.5 32 7.6 NNE 28 37 15 20 1016.6 1016.6 0.0
29/07:30am 17.8 10.4 1.7 34 7.2 NNE 30 41 16 22 1016.6 1016.6 0.0
29/07:00am 17.7 10.7 1.7 34 7.2 NNE 28 35 15 19 1016.5 1016.5 0.0
29/06:30am 16.3 10.6 2.7 40 6.1 NE 22 28 12 15 1016.1 1016.1 0.0
29/06:00am 16.3 10.1 2.3 39 6.3 NE 24 32 13 17 1015.9 1015.9 0.0
29/05:30am 15.9 9.7 2.3 40 6.1 NE 24 30 13 16 1016.0 1016.0 0.0
29/05:00am 15.8 10.0 2.2 40 6.1 NE 22 30 12 16 1015.9 1015.9 0.0
29/04:30am 16.1 9.9 2.2 39 6.2 NE 24 32 13 17 1016.1 1016.1 0.0
29/04:00am 16.2 10.0 1.9 38 6.4 NE 24 30 13 16 1016.4 1016.4 0.0
29/03:30am 16.3 10.0 1.6 37 6.5 NE 24 33 13 18 1016.5 1016.5 0.0
29/03:00am 16.9 10.2 1.4 35 6.8 NE 26 41 14 22 1017.0 1017.0 0.0
29/02:30am 16.3 10.0 1.6 37 6.5 NE 24 32 13 17 1017.2 1017.2 0.0
29/02:00am 16.5 10.2 1.8 37 6.5 NE 24 32 13 17 1017.7 1017.7 0.0
29/01:30am 16.7 10.0 1.6 36 6.7 NE 26 33 14 18 1017.3 1017.3 0.0
29/01:00am 16.7 10.0 1.2 35 6.8 NE 26 35 14 19 1017.5 1017.5 0.0
29/12:30am 16.7 10.5 2.3 38 6.5 NE 24 35 13 19 1018.1 1018.1 0.0
29/12:00am 15.9 10.5 2.7 41 5.9 NE 20 28 11 15 1018.5 1018.5 0.0
 
Date/Time
CST
Temp
°C
App
Temp
°C
Dew
Point
°C
Rel
Hum
%
Delta-T
°C
Wind Press
QNH
hPa
Press
MSL
hPa
Rain since
9am
mm
Dir  Spd
km/h
Gust
km/h
Spd
kts
Gust
kts
28/11:30pm 15.9 11.2 3.0 42 5.8 NE 17 22 9 12 1019.1 1019.1 0.0
28/11:00pm 14.6 10.6 2.8 45 5.3 NNE 13 17 7 9 1018.9 1018.9 0.0
28/10:30pm 15.0 10.3 2.9 44 5.4 NE 17 20 9 11 1018.8 1018.8 0.0
28/10:00pm 15.3 10.2 2.8 43 5.6 NE 19 22 10 12 1019.1 1019.1 0.0
28/09:30pm 15.3 10.7 3.5 45 5.4 NE 17 24 9 13 1019.6 1019.6 0.0
28/09:00pm 12.6 8.8 3.8 55 3.9 NE 13 17 7 9 1020.0 1020.0 0.0
28/08:30pm 13.5 9.3 3.6 51 4.4 NE 15 17 8 9 1020.1 1020.1 0.0
28/08:00pm 13.0 9.2 3.7 53 4.2 ENE 13 17 7 9 1019.9 1019.9 0.0
28/07:30pm 13.4 10.3 3.8 52 4.3 ENE 9 11 5 6 1019.6 1019.6 0.0
28/07:00pm 14.3 10.8 3.5 48 4.9 NE 11 13 6 7 1019.3 1019.3 0.0
28/06:30pm 16.2 11.7 2.2 39 6.2 NE 15 17 8 9 1019.2 1019.2 0.0
28/06:00pm 19.0 14.0 1.5 31 7.9 NE 17 24 9 13 1019.1 1019.1 0.0
28/05:30pm 19.7 14.2 2.1 31 8.1 NE 20 30 11 16 1019.1 1019.1 0.0
28/05:00pm 20.9 14.6 1.7 28 8.8 NE 24 35 13 19 1019.1 1019.1 0.0
28/04:30pm 20.9 14.3 2.2 29 8.7 NE 26 35 14 19 1019.3 1019.3 0.0
28/04:00pm 21.5 13.7 1.7 27 9.2 NE 32 41 17 22 1019.3 1019.3 0.0
28/03:30pm 21.8 15.8 3.5 30 8.8 NNE 24 35 13 19 1019.6 1019.6 0.0
28/03:00pm 21.7 15.2 2.9 29 8.9 ENE 26 43 14 23 1019.8 1019.8 0.0
28/02:30pm 21.8 15.8 3.5 30 8.8 NE 24 37 13 20 1020.1 1020.1 0.0
28/02:00pm 21.7 15.7 3.4 30 8.8 NE 24 33 13 18 1020.6 1020.6 0.0
28/01:30pm 21.4 14.8 4.0 32 8.4 ENE 28 35 15 19 1021.1 1021.1 0.0
28/01:00pm 21.7 14.9 2.9 29 8.9 NE 28 39 15 21 1021.9 1021.8 0.0
28/12:30pm 21.4 14.9 4.9 34 8.1 NE 28 41 15 22 1022.3 1022.2 0.0
28/12:00pm 20.5 14.4 4.9 36 7.6 NE 26 35 14 19 1022.8 1022.7 0.0
28/11:30am 19.7 13.9 4.6 37 7.3 NE 24 33 13 18 1023.3 1023.2 0.0
28/11:00am 19.2 12.7 4.9 39 6.9 NNE 28 39 15 21 1024.0 1023.9 0.0
28/10:30am 18.0 12.1 3.9 39 6.6 NNE 24 37 13 20 1024.6 1024.6 0.0
28/10:00am 18.4 11.0 3.8 38 6.9 NE 32 43 17 23 1024.8 1024.8 0.0
28/09:30am 18.4 11.9 4.6 40 6.6 NNE 28 37 15 20 1025.2 1025.2 0.0
28/09:00am 17.6 10.9 3.9 40 6.4 NE 28 37 15 20 1025.2 1025.2 0.0

Latest Capital City Observations: Canberra | Sydney | Melbourne | Brisbane | Adelaide | Perth | Hobart | Darwin

Other formats

Comma delimited format used in spreadsheet applications
http://www.bom.gov.au/fwo/IDS60901/IDS60901.95677.axf

JavaScript Object Notation format (JSON) in row-major order
http://www.bom.gov.au/fwo/IDS60901/IDS60901.95677.json

Data quality

Most of these data are generated automatically and are frequently updated. Quality checks on data are not normally performed. It is possible for incorrect values to appear. Refer to information at About Latest Weather Observations and please check the disclaimer before using these data.